S&P 500   4,471.37
DOW   35,294.76
QQQ   368.94
pixel
pixel
pixel
S&P 500   4,471.37
DOW   35,294.76
QQQ   368.94
pixel
pixel
pixel
S&P 500   4,471.37
DOW   35,294.76
QQQ   368.94
pixel
pixel
pixel
S&P 500   4,471.37
DOW   35,294.76
QQQ   368.94
pixel
pixel
pixel
NASDAQ:CYTK

Cytokinetics Institutional Ownership

$36.89
-1.24 (-3.25 %)
(As of 10/15/2021 04:00 PM ET)
Add
Compare
Today's Range
$36.77
$38.97
50-Day Range
$29.52
$38.85
52-Week Range
$14.89
$39.46
Volume768,628 shs
Average Volume1.18 million shs
Market Capitalization$3.08 billion
P/E RatioN/A
Dividend YieldN/A
Beta1.41

Institutional Ownership Changes (13F Filings) for Cytokinetics (NASDAQ:CYTK)

Institutional Ownership Percentage: 90.54%
Skip Chart & View Institutional Buying and Selling Data

Institutional Buying and Selling by Quarter


Cytokinetics (NASDAQ CYTK) Institutional Buying and Selling

Reporting DateHedge FundShares HeldMarket Value% of PortfolioQuarterly Change in SharesOwnership in CompanyDetails
10/13/2021Veracity Capital LLC8,321$0.30M0.1%N/A0.010%
10/12/2021Louisiana State Employees Retirement System40,200$1.44M0.0%+24.1%0.048%
10/7/2021State of Alaska Department of Revenue60,920$2.18M0.0%+22.7%0.073%
9/3/2021Parametric Portfolio Associates LLC172,383$3.41M0.0%+3.5%0.206%
8/26/2021Comerica Bank66,910$2.01M0.0%-6.6%0.080%
8/25/2021Marshall Wace LLP132,497$2.62M0.0%-51.6%0.159%
8/25/2021Marshall Wace North America L.P.1,146,502$22.69M0.1%-57.5%1.373%
8/18/2021Ikarian Capital LLC120,895$2.39M0.2%-4.8%0.145%
8/17/2021Wells Fargo & Company MN43,034$0.85M0.0%-47.6%0.052%
8/17/2021Invesco Ltd.421,796$8.35M0.0%+0.3%0.505%
8/17/2021Logos Global Management LP1,400,000$27.71M2.3%+100.0%1.676%
8/17/2021Metropolitan Life Insurance Co NY20,009$0.40M0.0%+105,210.5%0.024%
8/17/2021Price T Rowe Associates Inc. MD28,441$0.56M0.0%+4.6%0.034%
8/17/2021Prudential Financial Inc.77,198$1.53M0.0%-4.5%0.092%
8/17/2021Boothbay Fund Management LLC12,217$0.24M0.0%-4.8%0.015%
8/16/2021Squarepoint Ops LLC167,748$3.32M0.0%+670.4%0.201%
8/16/2021AQR Capital Management LLC10,135$0.20M0.0%-35.8%0.012%
8/16/2021Bank of America Corp DE245,402$4.86M0.0%+65.0%0.294%
8/16/2021Amalgamated Bank37,772$0.75M0.0%+293.6%0.045%
8/16/2021UBS Asset Management Americas Inc.62,935$1.25M0.0%-0.8%0.075%
8/16/2021Point72 Asset Management L.P.327,500$6.48M0.0%-12.6%0.392%
8/16/2021Cubist Systematic Strategies LLC44,619$0.88M0.0%-45.3%0.053%
8/16/2021California State Teachers Retirement System93,911$1.86M0.0%-6.1%0.112%
8/16/2021Commodore Capital LP704,317$13.94M4.8%N/A0.843%
8/16/2021First Trust Advisors LP75,858$1.50M0.0%+53.9%0.091%
8/16/2021Royal Bank of Canada8,422$0.17M0.0%-53.4%0.010%
8/16/2021Tudor Investment Corp Et Al24,317$0.48M0.0%-46.9%0.029%
8/16/2021Credit Suisse AG97,567$1.93M0.0%-19.8%0.117%
8/16/2021Schonfeld Strategic Advisors LLC20,300$0.40M0.0%N/A0.024%
8/16/2021Charles Schwab Investment Management Inc.511,304$10.12M0.0%+8.0%0.612%
8/16/2021State Street Corp4,250,786$84.12M0.0%+2.6%5.090%
8/16/2021Nuveen Asset Management LLC257,432$5.10M0.0%-13.0%0.308%
8/16/2021Goldman Sachs Group Inc.562,503$11.13M0.0%-30.1%0.674%
8/16/2021Marshall Wace LLP132,497$2.62M0.0%-51.6%0.159%
8/13/2021Renaissance Technologies LLC70,767$1.40M0.0%N/A0.085%
8/13/2021Northern Trust Corp907,580$17.96M0.0%+12.0%1.087%
8/13/2021Altium Capital Management LP84,262$1.67M0.4%-18.4%0.101%
8/13/2021Affinity Asset Advisors LLC70,000$1.39M0.5%+75.0%0.084%
8/13/2021Integral Health Asset Management LLC1,400,000$27.71M3.8%+100.0%1.676%
8/13/2021Jump Financial LLC17,352$0.34M0.0%+37.7%0.021%
8/13/2021Ensign Peak Advisors Inc202,555$4.01M0.0%+22.4%0.243%
8/13/2021Geode Capital Management LLC1,210,422$23.95M0.0%+4.5%1.449%
8/13/2021Vanguard Group Inc.4,725,689$93.52M0.0%-3.5%5.659%
8/13/2021FMR LLC8,488,682$167.99M0.0%+121.0%10.165%
8/13/2021Public Sector Pension Investment Board146,592$2.90M0.0%+0.5%0.176%
8/13/2021ProShare Advisors LLC32,508$0.64M0.0%+9.5%0.039%
8/12/2021Wasatch Advisors Inc.2,594,312$51.34M0.2%-0.6%3.106%
8/12/2021Trexquant Investment LP19,266$0.38M0.0%N/A0.023%
8/12/2021AlphaCrest Capital Management LLC19,909$0.39M0.0%N/A0.024%
8/12/2021SG Americas Securities LLC16,777$0.33M0.0%-17.6%0.020%
8/12/2021State of Wisconsin Investment Board94,200$1.86M0.0%-10.2%0.113%
8/12/2021Legal & General Group Plc155,860$3.08M0.0%-22.8%0.187%
8/12/2021Natixis Advisors L.P.17,139$0.34M0.0%-4.3%0.021%
8/12/2021JPMorgan Chase & Co.29,799$0.59M0.0%+19.1%0.036%
8/12/2021Bank of Montreal Can26,367$0.60M0.0%+23.4%0.032%
8/12/2021The Manufacturers Life Insurance Company 38,753$0.77M0.0%+2.7%0.046%
8/11/2021Great West Life Assurance Co. Can60,036$1.19M0.0%-1.7%0.072%
8/11/2021Bank of New York Mellon Corp622,586$12.32M0.0%-9.4%0.745%
8/11/2021BlackRock Inc.11,654,402$230.64M0.0%-2.3%16.246%
8/11/2021Deutsche Bank AG96,063$1.90M0.0%+116.0%0.134%
8/10/2021Virtus ETF Advisers LLC10,237$0.20M0.1%-27.6%0.014%
8/10/2021Birchview Capital LP10,000$0.20M0.1%N/A0.014%
8/10/2021Principal Financial Group Inc.523,081$10.35M0.0%+1.0%0.729%
8/10/2021BNP Paribas Arbitrage SA33,666$0.67M0.0%+68.3%0.047%
8/10/2021State Board of Administration of Florida Retirement System27,631$0.55M0.0%+5.7%0.039%
8/10/2021Citigroup Inc.241,835$4.79M0.0%+29.5%0.337%
8/10/2021Rafferty Asset Management LLC123,981$2.45M0.0%-15.1%0.173%
8/6/2021HighTower Advisors LLC10,000$0.20M0.0%-16.7%0.014%
8/6/2021Mutual of America Capital Management LLC10,198$0.20M0.0%+7.4%0.014%
8/6/2021Sei Investments Co.30,417$0.59M0.0%+1.9%0.042%
8/6/2021Swiss National Bank124,800$2.47M0.0%-14.2%0.174%
8/5/2021Fox Run Management L.L.C.16,978$0.34M0.3%N/A0.024%
8/5/2021Rhumbline Advisers195,601$3.87M0.0%-3.7%0.273%
8/5/2021US Bancorp DE1,687$33K0.0%+144.8%0.002%
8/4/2021Envestnet Asset Management Inc.20,477$0.41M0.0%+8.9%0.029%
8/4/2021Russell Investments Group Ltd.169,460$3.35M0.0%+82.7%0.236%
8/3/2021Handelsbanken Fonder AB16,500$0.33M0.0%+7.1%0.023%
8/3/2021Peregrine Capital Management LLC424,175$8.39M0.2%-5.0%0.591%
8/2/2021Arizona State Retirement System15,392$0.31M0.0%-17.0%0.021%
8/2/2021New York State Common Retirement Fund60,745$1.20M0.0%+0.9%0.085%
8/2/2021Pinnacle Associates Ltd.329,395$6.52M0.1%+1.6%0.459%
7/31/2021Mirador Capital Partners LP158,499$3.14M0.7%+6.3%0.221%
7/30/2021Alliancebernstein L.P.456,474$9.03M0.0%+26.0%0.636%
7/12/2021State of Alaska Department of Revenue49,645$0.98M0.0%+3.5%0.069%
5/24/2021Principal Financial Group Inc.517,719$12.04M0.0%+0.1%0.722%
5/19/2021Logos Global Management LP700,000$16.28M1.6%N/A0.976%
5/19/2021Squarepoint Ops LLC21,774$0.51M0.0%-71.1%0.030%
5/18/2021PFM Health Sciences LP1,536,373$35.74M1.1%+58.2%2.142%
5/18/2021Opaleye Management Inc.580,000$13.49M2.0%-0.5%0.808%
5/18/2021Point72 Asset Management L.P.374,600$8.71M0.0%-67.9%0.522%
5/18/2021D. E. Shaw & Co. Inc.92,247$2.15M0.0%+81.2%0.129%
5/18/2021State of Wisconsin Investment Board104,900$2.44M0.0%-4.2%0.146%
5/18/2021Tudor Investment Corp Et Al45,792$1.07M0.0%N/A0.064%
5/18/2021Cubist Systematic Strategies LLC81,635$1.90M0.0%+722.9%0.114%
5/17/2021Deerfield Management Company L.P. Series C2,561,000$59.57M1.3%+4.1%3.570%
5/17/2021Great West Life Assurance Co. Can61,067$1.42M0.0%-9.9%0.085%
5/17/2021AQR Capital Management LLC15,777$0.37M0.0%-3.7%0.022%
5/17/2021Royal Bank of Canada20,378$0.47M0.0%-38.3%0.028%
5/17/2021Polar Capital Holdings Plc2,671,884$62.15M0.4%-18.3%3.725%
5/17/2021Price T Rowe Associates Inc. MD27,180$0.63M0.0%+15.5%0.038%
(Data available from 1/1/2016 forward)













Cytokinetics (NASDAQ:CYTK) Institutional Ownership Frequently Asked Questions

Who are the institutional owners of Cytokinetics?

During the previous two years, 181 institutional investors and hedge funds held shares of Cytokinetics. The most heavily invested institutionals were BlackRock Inc. ($230.64M), FMR LLC ($167.99M), Vanguard Group Inc. ($93.52M), State Street Corp ($84.12M), BVF Inc. IL ($76.46M), Polar Capital Holdings Plc ($62.15M), and Deerfield Management Company L.P. Series C ($59.57M).Learn more on CYTK's institutional investors

What percentage of Cytokinetics stock is owned by institutional investors?

90.54% of Cytokinetics stock is owned by institutional investors. Learn more on CYTK's institutional investor holdings

Which institutional investors have been buying Cytokinetics stock?

Of the 165 institutional investors that purchased Cytokinetics stock in the last 24 months, the following investors and hedge funds have bought the highest volume of shares: FMR LLC ($5.32M), Point72 Asset Management L.P. ($3.87M), BVF Inc. IL ($3.04M), BlackRock Inc. ($2.57M), Logos Global Management LP ($2.01M), PFM Health Sciences LP ($1.54M), and State Street Corp ($1.36M).

How much institutional buying is happening at Cytokinetics?

Institutional investors have bought a total of 36,271,225 shares in the last 24 months. This purchase volume represents approximately $662.40M in transactions.

Which Cytokinetics institutionals have been selling company stock?

Of the 92 institutional investors that sold Cytokinetics stock in the last 24 months, the following investors and hedge funds have sold the highest volume of shares: Marshall Wace North America L.P. ($1.55M), Point72 Asset Management L.P. ($1.47M), BlackRock Inc. ($0.71M), Price T Rowe Associates Inc. MD ($0.64M), Polar Capital Holdings Plc ($0.60M), Nuveen Asset Management LLC ($0.46M), and Jacobs Levy Equity Management Inc. ($0.45M).

How much institutional selling is happening at Cytokinetics?

Institutional investors have sold a total of 10,598,413 shares in the last 24 months. This volume of shares sold represents approximately $209.41M in transactions.

This page was last updated on 10/17/2021 by MarketBeat.com Staff

Resources

Premium Research Tools

MarketBeat All Access subscribers can access stock screeners, the Idea Engine, data export tools, research reports, and other premium tools.

Discover All Access

Market Data and Calendars

Looking for new stock ideas? Want to see which stocks are moving? View our full suite of financial calendars and market data tables, all for free.

View Market Data

Investing Education and Resources

Receive a free world-class investing education from MarketBeat. Learn about financial terms, types of investments, trading strategies and more.

Financial Terms
Details Here
MarketBeat - Stock Market News and Research Tools logo

MarketBeat empowers individual investors to make better trading decisions by providing real-time financial data and objective market analysis. Whether you’re looking for analyst ratings, corporate buybacks, dividends, earnings, economic reports, financials, insider trades, IPOs, SEC filings or stock splits, MarketBeat has the objective information you need to analyze any stock. Learn more about MarketBeat.

MarketBeat is accredited by the Better Business Bureau

© American Consumer News, LLC dba MarketBeat® 2010-2021. All rights reserved.
326 E 8th St #105, Sioux Falls, SD 57103 | U.S. Based Support Team at [email protected] | (844) 978-6257
MarketBeat does not provide personalized financial advice and does not issue recommendations or offers to buy stock or sell any security.

Our Accessibility Statement | Terms of Service | Do Not Sell My Information

© 2021 Market data provided is at least 10-minutes delayed and hosted by Barchart Solutions. Information is provided 'as-is' and solely for informational purposes, not for trading purposes or advice, and is delayed. To see all exchange delays and terms of use please see disclaimer. Fundamental company data provided by Zacks Investment Research.